sensor_id;sensor_type;location;lat;lon;timestamp;pressure;altitude;pressure_sealevel;temperature;humidity
21869;BME280;11099;41.564;23.296;2024-03-02T00:00:10;96958.41;;;13.25;100.00
21869;BME280;11099;41.564;23.296;2024-03-02T00:02:45;97004.28;;;13.39;100.00
21869;BME280;11099;41.564;23.296;2024-03-02T00:05:42;97039.25;;;14.83;100.00
21869;BME280;11099;41.564;23.296;2024-03-02T00:09:00;96944.56;;;14.32;100.00
21869;BME280;11099;41.564;23.296;2024-03-02T00:14:22;96943.63;;;13.56;100.00
21869;BME280;11099;41.564;23.296;2024-03-02T00:17:24;97004.28;;;14.20;100.00
21869;BME280;11099;41.564;23.296;2024-03-02T00:19:57;97058.53;;;14.89;100.00
21869;BME280;11099;41.564;23.296;2024-03-02T00:22:50;97052.25;;;14.25;100.00
21869;BME280;11099;41.564;23.296;2024-03-02T00:28:39;97034.25;;;15.29;100.00
21869;BME280;11099;41.564;23.296;2024-03-02T00:31:13;96949.50;;;14.45;100.00
21869;BME280;11099;41.564;23.296;2024-03-02T00:33:48;96971.81;;;14.49;100.00
21869;BME280;11099;41.564;23.296;2024-03-02T00:36:31;97041.25;;;15.34;100.00
21869;BME280;11099;41.564;23.296;2024-03-02T00:39:12;97039.97;;;15.12;100.00
21869;BME280;11099;41.564;23.296;2024-03-02T00:41:59;97036.66;;;15.34;100.00
21869;BME280;11099;41.564;23.296;2024-03-02T00:44:29;96982.63;;;15.16;100.00
21869;BME280;11099;41.564;23.296;2024-03-02T00:47:09;97046.13;;;15.79;100.00
21869;BME280;11099;41.564;23.296;2024-03-02T00:49:47;97009.00;;;15.14;100.00
21869;BME280;11099;41.564;23.296;2024-03-02T00:52:18;97031.41;;;15.22;100.00
21869;BME280;11099;41.564;23.296;2024-03-02T00:54:48;96956.41;;;14.31;100.00
21869;BME280;11099;41.564;23.296;2024-03-02T00:57:17;97034.78;;;15.03;100.00
21869;BME280;11099;41.564;23.296;2024-03-02T00:59:49;97034.81;;;15.38;100.00
21869;BME280;11099;41.564;23.296;2024-03-02T01:02:36;96953.69;;;14.59;100.00
21869;BME280;11099;41.564;23.296;2024-03-02T01:05:06;97036.25;;;15.16;100.00
21869;BME280;11099;41.564;23.296;2024-03-02T01:07:38;96995.19;;;14.96;100.00
21869;BME280;11099;41.564;23.296;2024-03-02T01:10:10;97018.22;;;14.54;100.00
21869;BME280;11099;41.564;23.296;2024-03-02T01:12:37;97028.13;;;14.97;100.00
21869;BME280;11099;41.564;23.296;2024-03-02T01:15:08;96969.78;;;14.74;100.00
21869;BME280;11099;41.564;23.296;2024-03-02T01:17:41;97026.31;;;15.01;100.00
21869;BME280;11099;41.564;23.296;2024-03-02T01:20:14;96959.03;;;14.59;100.00
21869;BME280;11099;41.564;23.296;2024-03-02T01:22:43;97037.69;;;14.38;100.00
21869;BME280;11099;41.564;23.296;2024-03-02T01:25:10;97028.28;;;15.20;100.00
21869;BME280;11099;41.564;23.296;2024-03-02T01:27:42;97022.03;;;15.16;100.00
21869;BME280;11099;41.564;23.296;2024-03-02T01:30:12;96990.38;;;13.86;100.00
21869;BME280;11099;41.564;23.296;2024-03-02T01:32:47;96930.50;;;13.51;100.00
21869;BME280;11099;41.564;23.296;2024-03-02T01:35:17;97013.13;;;13.80;100.00
21869;BME280;11099;41.564;23.296;2024-03-02T01:37:48;96998.06;;;14.16;100.00
21869;BME280;11099;41.564;23.296;2024-03-02T01:40:20;97003.16;;;14.21;100.00
21869;BME280;11099;41.564;23.296;2024-03-02T01:42:50;96974.00;;;14.91;100.00
21869;BME280;11099;41.564;23.296;2024-03-02T01:45:23;96990.81;;;14.16;100.00
21869;BME280;11099;41.564;23.296;2024-03-02T01:50:33;97032.09;;;15.35;100.00
21869;BME280;11099;41.564;23.296;2024-03-02T01:53:06;96972.28;;;14.23;100.00
21869;BME280;11099;41.564;23.296;2024-03-02T01:55:34;96971.66;;;14.58;100.00
21869;BME280;11099;41.564;23.296;2024-03-02T01:58:04;97034.31;;;15.33;100.00
21869;BME280;11099;41.564;23.296;2024-03-02T02:00:33;96949.16;;;15.10;100.00
21869;BME280;11099;41.564;23.296;2024-03-02T02:03:07;96965.00;;;15.50;100.00
21869;BME280;11099;41.564;23.296;2024-03-02T02:05:43;97033.22;;;15.34;100.00
21869;BME280;11099;41.564;23.296;2024-03-02T02:08:23;97031.28;;;15.50;100.00
21869;BME280;11099;41.564;23.296;2024-03-02T02:11:18;96933.13;;;14.63;100.00
21869;BME280;11099;41.564;23.296;2024-03-02T02:13:49;97032.75;;;15.63;100.00
21869;BME280;11099;41.564;23.296;2024-03-02T02:16:18;96952.31;;;14.96;100.00
21869;BME280;11099;41.564;23.296;2024-03-02T02:18:49;97026.06;;;15.92;100.00
21869;BME280;11099;41.564;23.296;2024-03-02T02:21:25;96962.94;;;14.93;100.00
21869;BME280;11099;41.564;23.296;2024-03-02T02:24:18;96953.28;;;15.39;100.00
21869;BME280;11099;41.564;23.296;2024-03-02T02:26:53;96969.41;;;15.43;100.00
21869;BME280;11099;41.564;23.296;2024-03-02T02:29:45;97019.13;;;14.89;100.00
21869;BME280;11099;41.564;23.296;2024-03-02T02:32:18;96953.16;;;13.81;100.00
21869;BME280;11099;41.564;23.296;2024-03-02T02:34:56;97007.72;;;15.08;100.00
21869;BME280;11099;41.564;23.296;2024-03-02T02:37:30;96885.69;;;14.63;100.00
21869;BME280;11099;41.564;23.296;2024-03-02T02:40:05;96929.44;;;14.23;100.00
21869;BME280;11099;41.564;23.296;2024-03-02T02:42:34;97015.22;;;14.71;100.00
21869;BME280;11099;41.564;23.296;2024-03-02T02:45:00;96919.97;;;13.98;100.00
21869;BME280;11099;41.564;23.296;2024-03-02T02:47:28;96935.97;;;13.82;100.00
21869;BME280;11099;41.564;23.296;2024-03-02T02:50:01;97015.28;;;14.59;100.00
21869;BME280;11099;41.564;23.296;2024-03-02T02:52:37;96912.91;;;14.49;100.00
21869;BME280;11099;41.564;23.296;2024-03-02T02:55:13;96943.19;;;14.38;100.00
21869;BME280;11099;41.564;23.296;2024-03-02T02:57:44;97018.31;;;14.57;100.00
21869;BME280;11099;41.564;23.296;2024-03-02T03:00:16;96941.03;;;14.00;100.00
21869;BME280;11099;41.564;23.296;2024-03-02T03:02:49;96987.69;;;14.42;100.00
21869;BME280;11099;41.564;23.296;2024-03-02T03:05:19;97024.94;;;14.19;100.00
21869;BME280;11099;41.564;23.296;2024-03-02T03:07:48;96978.19;;;14.17;100.00
21869;BME280;11099;41.564;23.296;2024-03-02T03:10:19;97020.94;;;14.69;100.00
21869;BME280;11099;41.564;23.296;2024-03-02T03:12:49;97021.31;;;14.00;100.00
21869;BME280;11099;41.564;23.296;2024-03-02T03:15:18;96989.13;;;14.24;100.00
21869;BME280;11099;41.564;23.296;2024-03-02T03:17:47;96911.72;;;13.75;100.00
21869;BME280;11099;41.564;23.296;2024-03-02T03:20:18;96921.69;;;12.98;100.00
21869;BME280;11099;41.564;23.296;2024-03-02T03:22:47;96932.34;;;12.61;100.00
21869;BME280;11099;41.564;23.296;2024-03-02T03:25:15;96983.97;;;13.63;100.00
21869;BME280;11099;41.564;23.296;2024-03-02T03:27:47;96930.81;;;13.61;100.00
21869;BME280;11099;41.564;23.296;2024-03-02T03:30:17;97009.97;;;13.26;100.00
21869;BME280;11099;41.564;23.296;2024-03-02T03:32:54;96876.19;;;11.88;100.00
21869;BME280;11099;41.564;23.296;2024-03-02T03:35:21;97011.91;;;13.78;100.00
21869;BME280;11099;41.564;23.296;2024-03-02T03:37:50;96932.47;;;12.64;100.00
21869;BME280;11099;41.564;23.296;2024-03-02T03:40:16;97013.84;;;13.65;100.00
21869;BME280;11099;41.564;23.296;2024-03-02T03:42:44;97006.72;;;13.97;100.00
21869;BME280;11099;41.564;23.296;2024-03-02T03:45:17;96985.22;;;13.93;100.00
21869;BME280;11099;41.564;23.296;2024-03-02T03:47:43;96976.00;;;13.38;100.00
21869;BME280;11099;41.564;23.296;2024-03-02T03:50:11;96955.41;;;13.14;100.00
21869;BME280;11099;41.564;23.296;2024-03-02T03:52:38;96990.50;;;13.78;100.00
21869;BME280;11099;41.564;23.296;2024-03-02T03:55:10;96984.88;;;13.95;100.00
21869;BME280;11099;41.564;23.296;2024-03-02T03:57:39;96968.31;;;13.37;100.00
21869;BME280;11099;41.564;23.296;2024-03-02T04:00:06;97002.16;;;13.45;100.00
21869;BME280;11099;41.564;23.296;2024-03-02T04:02:39;97010.81;;;13.66;100.00
21869;BME280;11099;41.564;23.296;2024-03-02T04:05:06;96991.94;;;13.87;100.00
21869;BME280;11099;41.564;23.296;2024-03-02T04:07:37;97007.44;;;14.38;100.00
21869;BME280;11099;41.564;23.296;2024-03-02T04:10:12;96948.31;;;13.59;100.00
21869;BME280;11099;41.564;23.296;2024-03-02T04:12:43;97011.91;;;14.34;100.00
21869;BME280;11099;41.564;23.296;2024-03-02T04:15:11;96993.25;;;14.65;100.00
21869;BME280;11099;41.564;23.296;2024-03-02T04:17:42;96962.59;;;14.63;100.00
21869;BME280;11099;41.564;23.296;2024-03-02T04:20:12;96999.03;;;14.52;100.00
21869;BME280;11099;41.564;23.296;2024-03-02T04:22:40;96947.66;;;13.90;100.00
21869;BME280;11099;41.564;23.296;2024-03-02T04:25:12;96974.22;;;13.83;100.00
21869;BME280;11099;41.564;23.296;2024-03-02T04:27:41;97026.09;;;13.05;100.00
21869;BME280;11099;41.564;23.296;2024-03-02T04:30:10;96920.34;;;12.91;100.00
21869;BME280;11099;41.564;23.296;2024-03-02T04:32:40;96992.03;;;13.14;100.00
21869;BME280;11099;41.564;23.296;2024-03-02T04:35:14;96957.41;;;12.81;100.00
21869;BME280;11099;41.564;23.296;2024-03-02T04:37:40;97007.72;;;13.03;100.00
21869;BME280;11099;41.564;23.296;2024-03-02T04:48:45;96977.66;;;13.06;100.00
21869;BME280;11099;41.564;23.296;2024-03-02T04:51:46;96936.91;;;13.74;100.00
21869;BME280;11099;41.564;23.296;2024-03-02T04:54:57;97044.66;;;14.55;100.00
21869;BME280;11099;41.564;23.296;2024-03-02T05:01:11;96958.66;;;14.44;100.00
21869;BME280;11099;41.564;23.296;2024-03-02T05:03:58;96965.16;;;14.15;100.00
21869;BME280;11099;41.564;23.296;2024-03-02T05:06:30;97045.09;;;14.29;100.00
21869;BME280;11099;41.564;23.296;2024-03-02T05:14:28;96964.28;;;13.83;100.00
21869;BME280;11099;41.564;23.296;2024-03-02T05:17:01;96967.72;;;13.96;100.00
21869;BME280;11099;41.564;23.296;2024-03-02T05:19:48;96953.44;;;13.64;100.00
21869;BME280;11099;41.564;23.296;2024-03-02T05:24:58;97053.34;;;14.80;100.00
21869;BME280;11099;41.564;23.296;2024-03-02T05:27:33;97045.41;;;13.47;100.00
21869;BME280;11099;41.564;23.296;2024-03-02T05:30:01;97006.38;;;12.97;100.00
21869;BME280;11099;41.564;23.296;2024-03-02T05:32:33;97076.22;;;13.44;100.00
21869;BME280;11099;41.564;23.296;2024-03-02T05:35:05;97070.88;;;13.81;100.00
21869;BME280;11099;41.564;23.296;2024-03-02T05:37:39;97037.53;;;14.19;100.00
21869;BME280;11099;41.564;23.296;2024-03-02T05:40:09;97007.81;;;12.82;100.00
21869;BME280;11099;41.564;23.296;2024-03-02T05:42:40;97050.47;;;13.77;100.00
21869;BME280;11099;41.564;23.296;2024-03-02T05:45:26;96971.75;;;13.13;100.00
21869;BME280;11099;41.564;23.296;2024-03-02T05:51:29;97083.66;;;14.28;100.00
21869;BME280;11099;41.564;23.296;2024-03-02T05:54:28;97046.50;;;13.46;100.00
21869;BME280;11099;41.564;23.296;2024-03-02T05:59:46;97026.78;;;13.26;100.00
21869;BME280;11099;41.564;23.296;2024-03-02T06:02:41;97046.50;;;13.58;100.00
21869;BME280;11099;41.564;23.296;2024-03-02T06:05:16;97055.03;;;13.76;100.00
21869;BME280;11099;41.564;23.296;2024-03-02T06:07:44;97038.91;;;14.13;100.00
21869;BME280;11099;41.564;23.296;2024-03-02T06:10:10;97092.13;;;14.42;100.00
21869;BME280;11099;41.564;23.296;2024-03-02T06:12:37;97054.03;;;14.21;100.00
21869;BME280;11099;41.564;23.296;2024-03-02T06:15:06;97061.09;;;13.36;100.00
21869;BME280;11099;41.564;23.296;2024-03-02T06:17:35;97054.91;;;14.25;100.00
21869;BME280;11099;41.564;23.296;2024-03-02T06:20:05;97059.84;;;14.23;100.00
21869;BME280;11099;41.564;23.296;2024-03-02T06:22:34;97037.69;;;13.45;100.00
21869;BME280;11099;41.564;23.296;2024-03-02T06:25:00;97100.72;;;13.95;100.00
21869;BME280;11099;41.564;23.296;2024-03-02T06:27:26;97060.31;;;13.60;100.00
21869;BME280;11099;41.564;23.296;2024-03-02T06:29:53;97051.75;;;14.35;100.00
21869;BME280;11099;41.564;23.296;2024-03-02T06:32:28;97051.22;;;14.02;100.00
21869;BME280;11099;41.564;23.296;2024-03-02T06:35:36;97036.56;;;13.59;100.00
21869;BME280;11099;41.564;23.296;2024-03-02T06:38:44;97104.50;;;13.94;100.00
21869;BME280;11099;41.564;23.296;2024-03-02T06:41:32;97022.53;;;14.02;100.00
21869;BME280;11099;41.564;23.296;2024-03-02T06:44:02;97080.63;;;14.70;100.00
21869;BME280;11099;41.564;23.296;2024-03-02T06:46:30;97088.59;;;14.82;100.00
21869;BME280;11099;41.564;23.296;2024-03-02T06:49:19;97012.13;;;14.41;100.00
21869;BME280;11099;41.564;23.296;2024-03-02T06:51:50;97067.28;;;14.86;100.00
21869;BME280;11099;41.564;23.296;2024-03-02T06:54:25;97131.28;;;14.47;100.00
21869;BME280;11099;41.564;23.296;2024-03-02T06:57:11;97111.72;;;14.06;100.00
21869;BME280;11099;41.564;23.296;2024-03-02T07:06:18;97023.94;;;13.71;100.00
21869;BME280;11099;41.564;23.296;2024-03-02T07:12:25;97099.34;;;13.16;100.00
21869;BME280;11099;41.564;23.296;2024-03-02T07:17:44;97122.94;;;13.59;100.00
21869;BME280;11099;41.564;23.296;2024-03-02T07:20:14;97089.78;;;13.15;100.00
21869;BME280;11099;41.564;23.296;2024-03-02T07:22:44;97070.13;;;13.44;100.00
21869;BME280;11099;41.564;23.296;2024-03-02T07:25:24;97046.56;;;13.01;100.00
21869;BME280;11099;41.564;23.296;2024-03-02T07:27:51;97068.19;;;12.62;100.00
21869;BME280;11099;41.564;23.296;2024-03-02T07:30:20;97071.78;;;13.24;100.00
21869;BME280;11099;41.564;23.296;2024-03-02T07:32:55;97085.16;;;13.49;100.00
21869;BME280;11099;41.564;23.296;2024-03-02T07:35:31;97141.75;;;13.75;100.00
21869;BME280;11099;41.564;23.296;2024-03-02T07:38:37;97140.75;;;13.43;100.00
21869;BME280;11099;41.564;23.296;2024-03-02T07:41:13;97056.78;;;12.86;100.00
21869;BME280;11099;41.564;23.296;2024-03-02T07:44:07;97144.81;;;14.26;100.00
21869;BME280;11099;41.564;23.296;2024-03-02T07:47:00;97115.72;;;14.24;100.00
21869;BME280;11099;41.564;23.296;2024-03-02T07:49:34;97053.38;;;13.71;100.00
21869;BME280;11099;41.564;23.296;2024-03-02T07:52:02;97106.19;;;13.62;100.00
21869;BME280;11099;41.564;23.296;2024-03-02T07:54:30;97156.97;;;14.36;100.00
21869;BME280;11099;41.564;23.296;2024-03-02T07:56:56;97130.00;;;14.69;100.00
21869;BME280;11099;41.564;23.296;2024-03-02T07:59:27;97073.06;;;13.06;100.00
21869;BME280;11099;41.564;23.296;2024-03-02T08:02:03;97100.72;;;13.34;100.00
21869;BME280;11099;41.564;23.296;2024-03-02T08:04:31;97063.09;;;13.52;100.00
21869;BME280;11099;41.564;23.296;2024-03-02T08:06:59;97078.78;;;13.29;100.00
21869;BME280;11099;41.564;23.296;2024-03-02T08:09:43;97100.31;;;13.69;100.00
21869;BME280;11099;41.564;23.296;2024-03-02T08:12:26;97132.16;;;13.98;100.00
21869;BME280;11099;41.564;23.296;2024-03-02T08:14:58;97092.69;;;13.83;100.00
21869;BME280;11099;41.564;23.296;2024-03-02T08:17:31;97113.78;;;13.85;100.00
21869;BME280;11099;41.564;23.296;2024-03-02T08:20:00;97080.03;;;13.31;100.00
21869;BME280;11099;41.564;23.296;2024-03-02T08:22:33;97141.72;;;14.24;100.00
21869;BME280;11099;41.564;23.296;2024-03-02T08:25:01;97140.75;;;14.44;100.00
21869;BME280;11099;41.564;23.296;2024-03-02T08:27:31;97104.03;;;14.05;100.00
21869;BME280;11099;41.564;23.296;2024-03-02T08:30:10;97169.31;;;15.09;100.00
21869;BME280;11099;41.564;23.296;2024-03-02T08:32:41;97188.06;;;15.37;100.00
21869;BME280;11099;41.564;23.296;2024-03-02T08:45:34;97094.38;;;14.68;100.00
21869;BME280;11099;41.564;23.296;2024-03-02T08:48:13;97173.91;;;15.99;100.00
21869;BME280;11099;41.564;23.296;2024-03-02T08:50:47;97092.00;;;15.42;100.00
21869;BME280;11099;41.564;23.296;2024-03-02T08:53:22;97179.16;;;15.96;100.00
21869;BME280;11099;41.564;23.296;2024-03-02T08:55:54;97116.28;;;14.86;100.00
21869;BME280;11099;41.564;23.296;2024-03-02T08:58:25;97179.03;;;15.73;100.00
21869;BME280;11099;41.564;23.296;2024-03-02T09:06:06;97088.22;;;15.12;100.00
21869;BME280;11099;41.564;23.296;2024-03-02T09:12:05;97165.88;;;15.08;100.00
21869;BME280;11099;41.564;23.296;2024-03-02T09:17:26;97197.84;;;15.45;100.00
21869;BME280;11099;41.564;23.296;2024-03-02T09:19:57;97174.03;;;15.27;100.00
21869;BME280;11099;41.564;23.296;2024-03-02T09:22:37;97123.94;;;15.16;100.00
21869;BME280;11099;41.564;23.296;2024-03-02T09:25:47;97124.66;;;15.28;100.00
21869;BME280;11099;41.564;23.296;2024-03-02T09:28:29;97104.00;;;14.85;100.00
21869;BME280;11099;41.564;23.296;2024-03-02T09:31:01;97098.56;;;14.54;100.00
21869;BME280;11099;41.564;23.296;2024-03-02T09:33:29;97076.22;;;14.62;100.00
21869;BME280;11099;41.564;23.296;2024-03-02T09:36:32;97093.84;;;15.07;100.00
21869;BME280;11099;41.564;23.296;2024-03-02T09:38:58;97104.50;;;15.35;100.00
21869;BME280;11099;41.564;23.296;2024-03-02T09:41:32;97171.56;;;16.33;100.00
21869;BME280;11099;41.564;23.296;2024-03-02T09:44:10;97120.16;;;16.34;100.00
21869;BME280;11099;41.564;23.296;2024-03-02T09:46:36;97134.00;;;16.37;100.00
21869;BME280;11099;41.564;23.296;2024-03-02T09:49:16;97140.22;;;15.70;100.00
21869;BME280;11099;41.564;23.296;2024-03-02T09:51:53;97073.34;;;15.97;100.00
21869;BME280;11099;41.564;23.296;2024-03-02T09:54:20;97058.41;;;15.80;100.00
21869;BME280;11099;41.564;23.296;2024-03-02T09:56:50;97111.06;;;16.39;100.00
21869;BME280;11099;41.564;23.296;2024-03-02T09:59:18;97112.94;;;16.58;100.00
21869;BME280;11099;41.564;23.296;2024-03-02T10:02:09;97181.81;;;16.82;100.00
21869;BME280;11099;41.564;23.296;2024-03-02T10:07:29;97091.63;;;17.07;98.63
21869;BME280;11099;41.564;23.296;2024-03-02T10:12:32;97099.03;;;17.37;96.96
21869;BME280;11099;41.564;23.296;2024-03-02T10:15:25;97148.53;;;16.90;97.92
21869;BME280;11099;41.564;23.296;2024-03-02T10:17:51;97092.38;;;16.07;99.71
21869;BME280;11099;41.564;23.296;2024-03-02T10:20:27;97147.06;;;16.73;100.00
21869;BME280;11099;41.564;23.296;2024-03-02T10:23:18;97174.16;;;17.03;98.20
21869;BME280;11099;41.564;23.296;2024-03-02T10:25:51;97132.09;;;17.15;95.17
21869;BME280;11099;41.564;23.296;2024-03-02T10:28:51;97087.16;;;16.73;96.78
21869;BME280;11099;41.564;23.296;2024-03-02T10:31:43;97167.78;;;17.57;97.60
21869;BME280;11099;41.564;23.296;2024-03-02T10:34:40;97098.03;;;17.72;92.80
21869;BME280;11099;41.564;23.296;2024-03-02T10:37:36;97159.28;;;18.61;89.79
21869;BME280;11099;41.564;23.296;2024-03-02T10:41:08;97081.31;;;18.46;89.11
21869;BME280;11099;41.564;23.296;2024-03-02T10:43:44;97158.75;;;19.53;86.53
21869;BME280;11099;41.564;23.296;2024-03-02T10:46:29;97155.50;;;19.78;82.58
21869;BME280;11099;41.564;23.296;2024-03-02T10:59:56;97038.66;;;19.88;81.45
21869;BME280;11099;41.564;23.296;2024-03-02T11:02:30;97032.50;;;19.91;79.61
21869;BME280;11099;41.564;23.296;2024-03-02T11:05:27;97036.41;;;20.00;78.58
21869;BME280;11099;41.564;23.296;2024-03-02T11:08:34;97124.44;;;20.09;77.36
21869;BME280;11099;41.564;23.296;2024-03-02T11:11:07;97118.16;;;19.94;79.80
21869;BME280;11099;41.564;23.296;2024-03-02T11:19:14;97038.38;;;18.97;81.25
21869;BME280;11099;41.564;23.296;2024-03-02T11:21:59;97080.41;;;19.46;84.25
21869;BME280;11099;41.564;23.296;2024-03-02T11:55:17;97006.56;;;18.05;89.23
21869;BME280;11099;41.564;23.296;2024-03-02T11:58:06;97088.41;;;18.94;84.73
21869;BME280;11099;41.564;23.296;2024-03-02T12:01:21;97084.59;;;19.40;83.61
21869;BME280;11099;41.564;23.296;2024-03-02T12:04:38;97075.00;;;18.31;90.77
21869;BME280;11099;41.564;23.296;2024-03-02T12:15:37;97059.69;;;19.61;83.29
21869;BME280;11099;41.564;23.296;2024-03-02T12:33:54;97051.97;;;20.29;78.29
21869;BME280;11099;41.564;23.296;2024-03-02T12:36:37;96957.44;;;19.52;76.04
21869;BME280;11099;41.564;23.296;2024-03-02T12:51:25;96956.75;;;19.62;76.15
21869;BME280;11099;41.564;23.296;2024-03-02T12:57:43;97030.72;;;19.54;78.32
21869;BME280;11099;41.564;23.296;2024-03-02T13:00:15;97001.22;;;19.86;78.59
21869;BME280;11099;41.564;23.296;2024-03-02T13:08:33;96969.06;;;21.40;68.53
21869;BME280;11099;41.564;23.296;2024-03-02T13:16:48;96948.84;;;21.76;66.28
21869;BME280;11099;41.564;23.296;2024-03-02T13:20:03;97023.56;;;21.02;70.34
21869;BME280;11099;41.564;23.296;2024-03-02T13:22:53;97006.19;;;21.43;66.77
21869;BME280;11099;41.564;23.296;2024-03-02T13:25:42;96967.91;;;20.84;70.39
21869;BME280;11099;41.564;23.296;2024-03-02T13:28:14;96972.91;;;21.24;66.99
21869;BME280;11099;41.564;23.296;2024-03-02T13:30:47;96975.19;;;21.65;62.07
21869;BME280;11099;41.564;23.296;2024-03-02T13:33:30;97027.44;;;21.41;65.78
21869;BME280;11099;41.564;23.296;2024-03-02T13:36:03;96969.44;;;21.02;64.68
21869;BME280;11099;41.564;23.296;2024-03-02T13:38:53;97005.16;;;20.10;68.19
21869;BME280;11099;41.564;23.296;2024-03-02T13:41:28;96973.31;;;20.84;64.64
21869;BME280;11099;41.564;23.296;2024-03-02T13:44:01;96979.69;;;22.04;61.99
21869;BME280;11099;41.564;23.296;2024-03-02T13:46:38;96923.50;;;22.08;61.24
21869;BME280;11099;41.564;23.296;2024-03-02T13:49:08;96944.31;;;20.52;64.38
21869;BME280;11099;41.564;23.296;2024-03-02T13:51:37;96932.34;;;20.78;58.90
21869;BME280;11099;41.564;23.296;2024-03-02T13:54:09;96945.34;;;20.15;63.99
21869;BME280;11099;41.564;23.296;2024-03-02T13:56:47;96927.19;;;20.09;61.57
21869;BME280;11099;41.564;23.296;2024-03-02T13:59:18;96962.84;;;20.64;60.73
21869;BME280;11099;41.564;23.296;2024-03-02T14:01:47;96967.72;;;20.05;63.00
21869;BME280;11099;41.564;23.296;2024-03-02T14:04:15;96994.16;;;20.65;58.93
21869;BME280;11099;41.564;23.296;2024-03-02T14:06:43;97025.50;;;20.77;57.71
21869;BME280;11099;41.564;23.296;2024-03-02T14:09:21;96993.28;;;20.36;56.72
21869;BME280;11099;41.564;23.296;2024-03-02T14:11:50;96933.75;;;20.04;56.08
21869;BME280;11099;41.564;23.296;2024-03-02T14:14:21;96946.81;;;19.84;56.63
21869;BME280;11099;41.564;23.296;2024-03-02T14:16:54;96971.94;;;19.30;60.78
21869;BME280;11099;41.564;23.296;2024-03-02T14:19:22;96980.63;;;19.60;58.34
21869;BME280;11099;41.564;23.296;2024-03-02T14:21:47;96975.34;;;19.19;59.16
21869;BME280;11099;41.564;23.296;2024-03-02T14:24:13;96971.94;;;18.78;59.69
21869;BME280;11099;41.564;23.296;2024-03-02T14:26:39;97008.28;;;19.43;59.75
21869;BME280;11099;41.564;23.296;2024-03-02T14:29:06;96976.72;;;18.99;61.14
21869;BME280;11099;41.564;23.296;2024-03-02T14:31:32;96972.66;;;18.72;61.84
21869;BME280;11099;41.564;23.296;2024-03-02T14:33:58;96984.84;;;19.03;61.89
21869;BME280;11099;41.564;23.296;2024-03-02T14:36:24;97000.75;;;18.71;62.82
21869;BME280;11099;41.564;23.296;2024-03-02T14:38:50;97028.78;;;19.51;61.48
21869;BME280;11099;41.564;23.296;2024-03-02T14:41:16;97026.63;;;18.79;64.46
21869;BME280;11099;41.564;23.296;2024-03-02T14:43:43;96962.56;;;18.28;65.32
21869;BME280;11099;41.564;23.296;2024-03-02T14:46:09;96954.31;;;18.47;63.11
21869;BME280;11099;41.564;23.296;2024-03-02T14:48:38;97001.94;;;19.72;60.76
21869;BME280;11099;41.564;23.296;2024-03-02T14:51:04;96960.22;;;19.08;61.73
21869;BME280;11099;41.564;23.296;2024-03-02T14:53:32;96971.13;;;19.22;62.28
21869;BME280;11099;41.564;23.296;2024-03-02T14:56:00;96951.22;;;18.86;62.32
21869;BME280;11099;41.564;23.296;2024-03-02T14:58:28;96956.69;;;18.56;62.90
21869;BME280;11099;41.564;23.296;2024-03-02T15:00:56;96986.19;;;18.04;65.50
21869;BME280;11099;41.564;23.296;2024-03-02T15:03:22;96956.53;;;18.38;65.19
21869;BME280;11099;41.564;23.296;2024-03-02T15:05:49;96963.06;;;18.37;63.63
21869;BME280;11099;41.564;23.296;2024-03-02T15:08:17;97027.97;;;17.91;65.55
21869;BME280;11099;41.564;23.296;2024-03-02T15:10:44;96960.50;;;18.14;62.72
21869;BME280;11099;41.564;23.296;2024-03-02T15:15:46;97049.72;;;18.76;61.26
21869;BME280;11099;41.564;23.296;2024-03-02T15:18:22;96952.22;;;17.66;62.69
21869;BME280;11099;41.564;23.296;2024-03-02T15:20:53;96995.75;;;17.45;64.27
21869;BME280;11099;41.564;23.296;2024-03-02T15:23:20;97030.22;;;18.19;63.13
21869;BME280;11099;41.564;23.296;2024-03-02T15:26:04;97073.66;;;17.61;65.44
21869;BME280;11099;41.564;23.296;2024-03-02T15:28:40;96986.75;;;17.60;61.84
21869;BME280;11099;41.564;23.296;2024-03-02T15:31:16;97032.91;;;17.89;61.84
21869;BME280;11099;41.564;23.296;2024-03-02T15:33:57;97058.22;;;17.81;61.34
21869;BME280;11099;41.564;23.296;2024-03-02T15:36:26;97051.25;;;17.53;61.08
21869;BME280;11099;41.564;23.296;2024-03-02T15:39:17;96996.84;;;17.41;64.19
21869;BME280;11099;41.564;23.296;2024-03-02T15:42:10;97089.97;;;17.98;70.61
21869;BME280;11099;41.564;23.296;2024-03-02T15:48:26;97018.38;;;17.41;68.18
21869;BME280;11099;41.564;23.296;2024-03-02T15:58:51;97029.09;;;17.14;67.15
21869;BME280;11099;41.564;23.296;2024-03-02T16:07:39;97069.97;;;17.23;67.32
21869;BME280;11099;41.564;23.296;2024-03-02T16:10:27;97101.53;;;17.49;69.64
21869;BME280;11099;41.564;23.296;2024-03-02T16:13:12;97018.91;;;16.58;71.46
21869;BME280;11099;41.564;23.296;2024-03-02T16:15:47;97022.91;;;16.87;73.69
21869;BME280;11099;41.564;23.296;2024-03-02T16:18:13;97031.19;;;16.78;73.37
21869;BME280;11099;41.564;23.296;2024-03-02T16:20:44;97047.56;;;16.31;76.77
21869;BME280;11099;41.564;23.296;2024-03-02T16:23:31;97042.53;;;17.14;73.56
21869;BME280;11099;41.564;23.296;2024-03-02T16:25:59;97037.34;;;17.02;74.72
21869;BME280;11099;41.564;23.296;2024-03-02T16:28:29;97046.50;;;16.97;74.92
21869;BME280;11099;41.564;23.296;2024-03-02T16:31:04;97051.84;;;17.43;72.51
21869;BME280;11099;41.564;23.296;2024-03-02T16:33:47;97114.72;;;17.58;72.60
21869;BME280;11099;41.564;23.296;2024-03-02T16:36:19;97048.78;;;16.95;72.25
21869;BME280;11099;41.564;23.296;2024-03-02T16:38:51;97089.41;;;17.13;74.13